sensor_id;sensor_type;location;lat;lon;timestamp;pressure;altitude;pressure_sealevel;temperature;humidity
3260;BME280;68938;48.150;14.004;2023-04-29T00:01:12;97752.28;;;15.55;72.51
3260;BME280;68938;48.150;14.004;2023-04-29T00:03:39;97753.97;;;15.56;72.27
3260;BME280;68938;48.150;14.004;2023-04-29T00:06:06;97750.47;;;15.57;72.01
3260;BME280;68938;48.150;14.004;2023-04-29T00:08:34;97747.88;;;15.57;72.08
3260;BME280;68938;48.150;14.004;2023-04-29T00:11:00;97735.88;;;15.56;72.10
3260;BME280;68938;48.150;14.004;2023-04-29T00:13:27;97721.88;;;15.44;72.59
3260;BME280;68938;48.150;14.004;2023-04-29T00:15:54;97731.03;;;15.50;72.50
3260;BME280;68938;48.150;14.004;2023-04-29T00:18:21;97730.38;;;15.46;72.76
3260;BME280;68938;48.150;14.004;2023-04-29T00:20:48;97718.19;;;15.48;72.50
3260;BME280;68938;48.150;14.004;2023-04-29T00:23:15;97732.88;;;15.48;72.80
3260;BME280;68938;48.150;14.004;2023-04-29T00:25:42;97723.63;;;15.44;72.92
3260;BME280;68938;48.150;14.004;2023-04-29T00:28:09;97724.78;;;15.38;72.41
3260;BME280;68938;48.150;14.004;2023-04-29T00:30:35;97710.31;;;15.35;72.63
3260;BME280;68938;48.150;14.004;2023-04-29T00:33:02;97718.91;;;15.36;72.77
3260;BME280;68938;48.150;14.004;2023-04-29T00:35:29;97712.13;;;15.33;72.79
3260;BME280;68938;48.150;14.004;2023-04-29T00:37:56;97719.06;;;15.33;73.17
3260;BME280;68938;48.150;14.004;2023-04-29T00:40:23;97717.22;;;15.35;73.05
3260;BME280;68938;48.150;14.004;2023-04-29T00:42:50;97718.25;;;15.32;73.19
3260;BME280;68938;48.150;14.004;2023-04-29T00:45:17;97718.97;;;15.34;73.44
3260;BME280;68938;48.150;14.004;2023-04-29T00:47:44;97716.16;;;15.39;73.06
3260;BME280;68938;48.150;14.004;2023-04-29T00:50:11;97714.28;;;15.41;73.51
3260;BME280;68938;48.150;14.004;2023-04-29T00:52:38;97713.72;;;15.36;73.24
3260;BME280;68938;48.150;14.004;2023-04-29T00:55:06;97714.38;;;15.39;72.98
3260;BME280;68938;48.150;14.004;2023-04-29T00:57:33;97713.56;;;15.39;73.03
3260;BME280;68938;48.150;14.004;2023-04-29T01:00:00;97715.38;;;15.37;73.45
3260;BME280;68938;48.150;14.004;2023-04-29T01:02:27;97720.56;;;15.37;73.57
3260;BME280;68938;48.150;14.004;2023-04-29T01:04:54;97717.69;;;15.41;73.40
3260;BME280;68938;48.150;14.004;2023-04-29T01:07:36;97715.88;;;15.44;73.25
3260;BME280;68938;48.150;14.004;2023-04-29T01:10:33;97713.19;;;15.45;73.01
3260;BME280;68938;48.150;14.004;2023-04-29T01:13:17;97721.03;;;15.44;72.74
3260;BME280;68938;48.150;14.004;2023-04-29T01:18:40;97718.06;;;15.35;72.53
3260;BME280;68938;48.150;14.004;2023-04-29T01:21:09;97734.25;;;15.39;72.79
3260;BME280;68938;48.150;14.004;2023-04-29T01:23:36;97737.56;;;15.41;72.71
3260;BME280;68938;48.150;14.004;2023-04-29T01:26:03;97730.72;;;15.40;72.58
3260;BME280;68938;48.150;14.004;2023-04-29T01:31:50;97724.63;;;15.41;73.00
3260;BME280;68938;48.150;14.004;2023-04-29T01:34:41;97730.56;;;15.43;72.75
3260;BME280;68938;48.150;14.004;2023-04-29T01:40:19;97725.28;;;15.45;72.41
3260;BME280;68938;48.150;14.004;2023-04-29T01:43:02;97722.69;;;15.45;72.21
3260;BME280;68938;48.150;14.004;2023-04-29T01:45:33;97723.06;;;15.38;72.32
3260;BME280;68938;48.150;14.004;2023-04-29T01:48:00;97720.56;;;15.37;72.34
3260;BME280;68938;48.150;14.004;2023-04-29T01:50:28;97725.66;;;15.38;72.52
3260;BME280;68938;48.150;14.004;2023-04-29T01:52:55;97717.22;;;15.35;72.33
3260;BME280;68938;48.150;14.004;2023-04-29T01:55:22;97715.72;;;15.31;72.47
3260;BME280;68938;48.150;14.004;2023-04-29T01:57:49;97715.56;;;15.34;72.72
3260;BME280;68938;48.150;14.004;2023-04-29T02:00:16;97707.72;;;15.35;72.41
3260;BME280;68938;48.150;14.004;2023-04-29T02:02:43;97703.84;;;15.28;72.49
3260;BME280;68938;48.150;14.004;2023-04-29T02:05:10;97706.16;;;15.33;72.66
3260;BME280;68938;48.150;14.004;2023-04-29T02:07:37;97702.06;;;15.29;72.53
3260;BME280;68938;48.150;14.004;2023-04-29T02:10:04;97714.91;;;15.30;72.45
3260;BME280;68938;48.150;14.004;2023-04-29T02:12:31;97712.75;;;15.23;72.89
3260;BME280;68938;48.150;14.004;2023-04-29T02:14:58;97715.22;;;15.24;72.80
3260;BME280;68938;48.150;14.004;2023-04-29T02:17:25;97717.81;;;15.24;72.15
3260;BME280;68938;48.150;14.004;2023-04-29T02:19:52;97711.81;;;15.24;72.51
3260;BME280;68938;48.150;14.004;2023-04-29T02:22:20;97718.84;;;15.22;72.59
3260;BME280;68938;48.150;14.004;2023-04-29T02:24:47;97717.16;;;15.21;72.63
3260;BME280;68938;48.150;14.004;2023-04-29T02:27:13;97724.00;;;15.22;72.52
3260;BME280;68938;48.150;14.004;2023-04-29T02:29:40;97718.91;;;15.20;72.38
3260;BME280;68938;48.150;14.004;2023-04-29T02:32:07;97713.66;;;15.22;72.64
3260;BME280;68938;48.150;14.004;2023-04-29T02:34:34;97713.00;;;15.18;72.63
3260;BME280;68938;48.150;14.004;2023-04-29T02:37:01;97728.50;;;15.18;72.38
3260;BME280;68938;48.150;14.004;2023-04-29T02:39:28;97728.56;;;15.16;72.44
3260;BME280;68938;48.150;14.004;2023-04-29T02:41:55;97724.25;;;15.17;72.60
3260;BME280;68938;48.150;14.004;2023-04-29T02:44:22;97722.59;;;15.16;72.10
3260;BME280;68938;48.150;14.004;2023-04-29T02:46:48;97716.75;;;15.12;72.30
3260;BME280;68938;48.150;14.004;2023-04-29T02:49:15;97709.94;;;15.11;72.04
3260;BME280;68938;48.150;14.004;2023-04-29T02:51:42;97717.25;;;15.03;71.76
3260;BME280;68938;48.150;14.004;2023-04-29T02:54:10;97716.69;;;14.98;71.75
3260;BME280;68938;48.150;14.004;2023-04-29T02:56:37;97718.75;;;14.91;72.12
3260;BME280;68938;48.150;14.004;2023-04-29T02:59:04;97720.53;;;14.91;72.17
3260;BME280;68938;48.150;14.004;2023-04-29T03:01:31;97736.50;;;14.82;72.90
3260;BME280;68938;48.150;14.004;2023-04-29T03:03:57;97722.97;;;14.77;73.08
3260;BME280;68938;48.150;14.004;2023-04-29T03:06:25;97706.66;;;14.76;73.50
3260;BME280;68938;48.150;14.004;2023-04-29T03:08:52;97707.44;;;14.78;73.62
3260;BME280;68938;48.150;14.004;2023-04-29T03:11:19;97712.75;;;14.75;73.71
3260;BME280;68938;48.150;14.004;2023-04-29T03:13:46;97706.91;;;14.72;73.76
3260;BME280;68938;48.150;14.004;2023-04-29T03:16:13;97705.78;;;14.77;73.92
3260;BME280;68938;48.150;14.004;2023-04-29T03:18:40;97696.94;;;14.81;73.55
3260;BME280;68938;48.150;14.004;2023-04-29T03:21:07;97695.84;;;14.85;73.77
3260;BME280;68938;48.150;14.004;2023-04-29T03:23:34;97681.44;;;14.81;73.57
3260;BME280;68938;48.150;14.004;2023-04-29T03:26:00;97689.69;;;14.88;73.48
3260;BME280;68938;48.150;14.004;2023-04-29T03:28:27;97689.84;;;14.85;73.85
3260;BME280;68938;48.150;14.004;2023-04-29T03:30:54;97699.34;;;14.84;73.89
3260;BME280;68938;48.150;14.004;2023-04-29T03:33:21;97688.59;;;14.76;74.12
3260;BME280;68938;48.150;14.004;2023-04-29T03:35:48;97692.69;;;14.80;74.66
3260;BME280;68938;48.150;14.004;2023-04-29T03:38:15;97694.19;;;14.84;74.49
3260;BME280;68938;48.150;14.004;2023-04-29T03:40:42;97688.88;;;14.87;74.16
3260;BME280;68938;48.150;14.004;2023-04-29T03:43:09;97686.94;;;14.91;73.97
3260;BME280;68938;48.150;14.004;2023-04-29T03:45:35;97689.38;;;14.94;74.14
3260;BME280;68938;48.150;14.004;2023-04-29T03:48:03;97688.44;;;14.95;73.94
3260;BME280;68938;48.150;14.004;2023-04-29T03:50:30;97697.84;;;14.96;73.96
3260;BME280;68938;48.150;14.004;2023-04-29T03:52:57;97694.59;;;14.92;74.31
3260;BME280;68938;48.150;14.004;2023-04-29T03:55:23;97696.09;;;14.97;73.97
3260;BME280;68938;48.150;14.004;2023-04-29T03:57:50;97699.34;;;15.00;74.05
3260;BME280;68938;48.150;14.004;2023-04-29T04:00:17;97700.09;;;15.02;74.08
3260;BME280;68938;48.150;14.004;2023-04-29T04:02:44;97702.50;;;15.05;73.54
3260;BME280;68938;48.150;14.004;2023-04-29T04:05:11;97708.78;;;15.01;74.04
3260;BME280;68938;48.150;14.004;2023-04-29T04:07:39;97714.00;;;15.00;74.15
3260;BME280;68938;48.150;14.004;2023-04-29T04:10:06;97713.84;;;15.03;73.88
3260;BME280;68938;48.150;14.004;2023-04-29T04:12:33;97708.50;;;15.06;74.00
3260;BME280;68938;48.150;14.004;2023-04-29T04:15:00;97712.56;;;15.10;73.66
3260;BME280;68938;48.150;14.004;2023-04-29T04:17:26;97719.34;;;15.12;73.80
3260;BME280;68938;48.150;14.004;2023-04-29T04:19:53;97709.28;;;15.08;74.26
3260;BME280;68938;48.150;14.004;2023-04-29T04:22:20;97711.50;;;15.14;74.02
3260;BME280;68938;48.150;14.004;2023-04-29T04:24:47;97704.66;;;15.13;73.90
3260;BME280;68938;48.150;14.004;2023-04-29T04:27:14;97719.72;;;15.21;73.54
3260;BME280;68938;48.150;14.004;2023-04-29T04:29:41;97719.56;;;15.24;73.96
3260;BME280;68938;48.150;14.004;2023-04-29T04:32:07;97724.00;;;15.22;73.88
3260;BME280;68938;48.150;14.004;2023-04-29T04:34:36;97714.22;;;15.27;73.94
3260;BME280;68938;48.150;14.004;2023-04-29T04:37:03;97711.59;;;15.28;74.02
3260;BME280;68938;48.150;14.004;2023-04-29T04:39:30;97711.00;;;15.23;74.48
3260;BME280;68938;48.150;14.004;2023-04-29T04:41:57;97714.34;;;15.25;74.40
3260;BME280;68938;48.150;14.004;2023-04-29T04:44:24;97721.06;;;15.28;74.24
3260;BME280;68938;48.150;14.004;2023-04-29T04:46:51;97725.41;;;15.27;74.57
3260;BME280;68938;48.150;14.004;2023-04-29T04:49:18;97716.56;;;15.31;74.88
3260;BME280;68938;48.150;14.004;2023-04-29T04:51:45;97706.16;;;15.33;74.74
3260;BME280;68938;48.150;14.004;2023-04-29T04:54:12;97714.72;;;15.33;75.02
3260;BME280;68938;48.150;14.004;2023-04-29T04:56:39;97704.81;;;15.26;75.69
3260;BME280;68938;48.150;14.004;2023-04-29T04:59:05;97707.06;;;15.32;75.60
3260;BME280;68938;48.150;14.004;2023-04-29T05:01:32;97710.66;;;15.29;76.19
3260;BME280;68938;48.150;14.004;2023-04-29T05:03:59;97705.22;;;15.34;75.74
3260;BME280;68938;48.150;14.004;2023-04-29T05:06:26;97710.38;;;15.34;75.93
3260;BME280;68938;48.150;14.004;2023-04-29T05:08:53;97703.13;;;15.40;75.81
3260;BME280;68938;48.150;14.004;2023-04-29T05:11:21;97709.59;;;15.48;75.58
3260;BME280;68938;48.150;14.004;2023-04-29T05:13:48;97706.84;;;15.51;75.62
3260;BME280;68938;48.150;14.004;2023-04-29T05:16:15;97714.09;;;15.60;75.53
3260;BME280;68938;48.150;14.004;2023-04-29T05:18:41;97723.19;;;15.67;75.40
3260;BME280;68938;48.150;14.004;2023-04-29T05:21:08;97722.69;;;15.60;75.25
3260;BME280;68938;48.150;14.004;2023-04-29T05:23:35;97720.38;;;15.56;74.99
3260;BME280;68938;48.150;14.004;2023-04-29T05:26:02;97723.69;;;15.58;74.95
3260;BME280;68938;48.150;14.004;2023-04-29T05:28:30;97723.44;;;15.62;75.23
3260;BME280;68938;48.150;14.004;2023-04-29T05:30:56;97725.78;;;15.67;75.19
3260;BME280;68938;48.150;14.004;2023-04-29T05:33:23;97733.19;;;15.73;74.70
3260;BME280;68938;48.150;14.004;2023-04-29T05:35:50;97730.69;;;15.72;74.75
3260;BME280;68938;48.150;14.004;2023-04-29T05:38:17;97737.16;;;15.79;74.86
3260;BME280;68938;48.150;14.004;2023-04-29T05:40:44;97735.16;;;15.84;74.80
3260;BME280;68938;48.150;14.004;2023-04-29T05:43:11;97742.25;;;15.80;75.26
3260;BME280;68938;48.150;14.004;2023-04-29T05:45:38;97744.84;;;15.80;75.24
3260;BME280;68938;48.150;14.004;2023-04-29T05:48:05;97739.41;;;15.85;74.97
3260;BME280;68938;48.150;14.004;2023-04-29T05:50:33;97742.41;;;15.93;75.04
3260;BME280;68938;48.150;14.004;2023-04-29T05:53:01;97741.34;;;15.96;74.67
3260;BME280;68938;48.150;14.004;2023-04-29T05:55:27;97756.81;;;15.97;74.86
3260;BME280;68938;48.150;14.004;2023-04-29T05:57:55;97755.22;;;15.95;74.79
3260;BME280;68938;48.150;14.004;2023-04-29T06:00:22;97759.41;;;15.97;75.36
3260;BME280;68938;48.150;14.004;2023-04-29T06:02:49;97758.75;;;15.94;75.56
3260;BME280;68938;48.150;14.004;2023-04-29T06:05:23;97762.63;;;15.71;74.65
3260;BME280;68938;48.150;14.004;2023-04-29T06:07:51;97762.41;;;15.90;74.27
3260;BME280;68938;48.150;14.004;2023-04-29T06:10:18;97758.28;;;16.01;73.73
3260;BME280;68938;48.150;14.004;2023-04-29T06:12:45;97766.59;;;16.06;74.27
3260;BME280;68938;48.150;14.004;2023-04-29T06:15:12;97767.53;;;16.05;73.92
3260;BME280;68938;48.150;14.004;2023-04-29T06:17:38;97767.47;;;16.07;74.25
3260;BME280;68938;48.150;14.004;2023-04-29T06:20:06;97765.72;;;16.07;73.14
3260;BME280;68938;48.150;14.004;2023-04-29T06:22:34;97778.09;;;16.17;73.00
3260;BME280;68938;48.150;14.004;2023-04-29T06:25:01;97777.38;;;16.15;72.75
3260;BME280;68938;48.150;14.004;2023-04-29T06:27:28;97776.72;;;16.25;72.82
3260;BME280;68938;48.150;14.004;2023-04-29T06:29:54;97776.03;;;16.38;72.66
3260;BME280;68938;48.150;14.004;2023-04-29T06:32:21;97775.56;;;16.45;72.73
3260;BME280;68938;48.150;14.004;2023-04-29T06:34:48;97777.69;;;16.53;72.86
3260;BME280;68938;48.150;14.004;2023-04-29T06:37:15;97772.78;;;16.48;72.73
3260;BME280;68938;48.150;14.004;2023-04-29T06:39:42;97777.97;;;16.48;73.89
3260;BME280;68938;48.150;14.004;2023-04-29T06:42:09;97773.63;;;16.49;73.42
3260;BME280;68938;48.150;14.004;2023-04-29T06:44:35;97776.75;;;16.54;73.61
3260;BME280;68938;48.150;14.004;2023-04-29T06:47:02;97778.03;;;16.61;73.30
3260;BME280;68938;48.150;14.004;2023-04-29T06:49:29;97776.22;;;16.63;73.49
3260;BME280;68938;48.150;14.004;2023-04-29T06:51:56;97771.31;;;16.73;73.32
3260;BME280;68938;48.150;14.004;2023-04-29T06:54:23;97773.38;;;16.82;72.61
3260;BME280;68938;48.150;14.004;2023-04-29T06:56:50;97782.41;;;16.61;73.98
3260;BME280;68938;48.150;14.004;2023-04-29T06:59:17;97784.16;;;16.46;72.48
3260;BME280;68938;48.150;14.004;2023-04-29T07:01:44;97785.63;;;16.35;73.52
3260;BME280;68938;48.150;14.004;2023-04-29T07:04:13;97787.50;;;16.48;73.23
3260;BME280;68938;48.150;14.004;2023-04-29T07:06:40;97787.56;;;16.32;73.98
3260;BME280;68938;48.150;14.004;2023-04-29T07:09:07;97781.75;;;16.43;72.93
3260;BME280;68938;48.150;14.004;2023-04-29T07:11:34;97784.69;;;16.51;73.68
3260;BME280;68938;48.150;14.004;2023-04-29T07:14:01;97795.03;;;16.37;73.95
3260;BME280;68938;48.150;14.004;2023-04-29T07:16:28;97790.53;;;16.54;73.03
3260;BME280;68938;48.150;14.004;2023-04-29T07:18:55;97795.00;;;16.81;73.16
3260;BME280;68938;48.150;14.004;2023-04-29T07:21:21;97789.34;;;16.89;73.05
3260;BME280;68938;48.150;14.004;2023-04-29T07:23:48;97790.44;;;16.99;73.32
3260;BME280;68938;48.150;14.004;2023-04-29T07:26:16;97782.94;;;17.09;72.38
3260;BME280;68938;48.150;14.004;2023-04-29T07:28:44;97785.25;;;17.27;73.51
3260;BME280;68938;48.150;14.004;2023-04-29T07:31:11;97784.22;;;17.30;71.64
3260;BME280;68938;48.150;14.004;2023-04-29T07:33:38;97787.94;;;17.53;72.71
3260;BME280;68938;48.150;14.004;2023-04-29T07:36:05;97789.84;;;17.78;71.69
3260;BME280;68938;48.150;14.004;2023-04-29T07:38:32;97792.56;;;17.89;71.13
3260;BME280;68938;48.150;14.004;2023-04-29T07:40:59;97796.22;;;17.99;69.74
3260;BME280;68938;48.150;14.004;2023-04-29T07:43:26;97800.09;;;18.19;70.07
3260;BME280;68938;48.150;14.004;2023-04-29T07:45:53;97784.19;;;18.24;69.69
3260;BME280;68938;48.150;14.004;2023-04-29T07:48:20;97794.19;;;18.30;69.42
3260;BME280;68938;48.150;14.004;2023-04-29T07:50:47;97787.84;;;18.47;69.14
3260;BME280;68938;48.150;14.004;2023-04-29T07:53:13;97792.13;;;18.61;69.22
3260;BME280;68938;48.150;14.004;2023-04-29T07:55:40;97788.97;;;18.56;67.54
3260;BME280;68938;48.150;14.004;2023-04-29T07:58:07;97798.03;;;18.63;67.35
3260;BME280;68938;48.150;14.004;2023-04-29T08:00:34;97793.59;;;18.78;67.84
3260;BME280;68938;48.150;14.004;2023-04-29T08:03:01;97795.34;;;18.90;67.44
3260;BME280;68938;48.150;14.004;2023-04-29T08:05:29;97793.34;;;18.93;66.47
3260;BME280;68938;48.150;14.004;2023-04-29T08:07:56;97790.94;;;19.03;66.42
3260;BME280;68938;48.150;14.004;2023-04-29T08:10:23;97792.69;;;19.15;66.89
3260;BME280;68938;48.150;14.004;2023-04-29T08:12:50;97798.69;;;19.29;65.79
3260;BME280;68938;48.150;14.004;2023-04-29T08:15:17;97802.66;;;19.22;65.50
3260;BME280;68938;48.150;14.004;2023-04-29T08:17:44;97802.75;;;19.20;65.81
3260;BME280;68938;48.150;14.004;2023-04-29T08:20:11;97795.19;;;19.17;65.16
3260;BME280;68938;48.150;14.004;2023-04-29T08:22:38;97804.59;;;19.31;65.13
3260;BME280;68938;48.150;14.004;2023-04-29T08:25:06;97806.28;;;19.32;65.69
3260;BME280;68938;48.150;14.004;2023-04-29T08:27:33;97806.75;;;19.50;65.23
3260;BME280;68938;48.150;14.004;2023-04-29T08:30:00;97812.22;;;19.58;65.09
3260;BME280;68938;48.150;14.004;2023-04-29T08:32:27;97810.84;;;19.65;64.76
3260;BME280;68938;48.150;14.004;2023-04-29T08:34:53;97800.88;;;19.59;63.97
3260;BME280;68938;48.150;14.004;2023-04-29T08:37:21;97810.34;;;19.60;64.92
3260;BME280;68938;48.150;14.004;2023-04-29T08:39:48;97810.44;;;19.71;64.11
3260;BME280;68938;48.150;14.004;2023-04-29T08:42:15;97810.81;;;19.78;63.99
3260;BME280;68938;48.150;14.004;2023-04-29T08:44:47;97806.94;;;19.83;63.19
3260;BME280;68938;48.150;14.004;2023-04-29T08:47:15;97802.22;;;19.88;64.49
3260;BME280;68938;48.150;14.004;2023-04-29T08:49:42;97812.66;;;20.00;64.21
3260;BME280;68938;48.150;14.004;2023-04-29T08:52:09;97806.31;;;20.04;63.28
3260;BME280;68938;48.150;14.004;2023-04-29T08:54:36;97805.59;;;20.02;63.26
3260;BME280;68938;48.150;14.004;2023-04-29T08:57:04;97814.44;;;19.99;62.75
3260;BME280;68938;48.150;14.004;2023-04-29T08:59:32;97802.63;;;20.06;62.70
3260;BME280;68938;48.150;14.004;2023-04-29T09:01:59;97809.09;;;20.25;63.99
3260;BME280;68938;48.150;14.004;2023-04-29T09:07:15;97799.81;;;20.78;63.06
3260;BME280;68938;48.150;14.004;2023-04-29T09:09:43;97796.06;;;20.94;60.80
3260;BME280;68938;48.150;14.004;2023-04-29T09:12:10;97790.13;;;21.03;60.73
3260;BME280;68938;48.150;14.004;2023-04-29T09:14:36;97786.78;;;21.23;60.01
3260;BME280;68938;48.150;14.004;2023-04-29T09:17:03;97784.19;;;21.23;59.90
3260;BME280;68938;48.150;14.004;2023-04-29T09:19:32;97786.16;;;21.31;58.83
3260;BME280;68938;48.150;14.004;2023-04-29T09:22:03;97792.59;;;21.27;59.03
3260;BME280;68938;48.150;14.004;2023-04-29T09:24:30;97793.66;;;21.36;59.04
3260;BME280;68938;48.150;14.004;2023-04-29T09:26:58;97791.72;;;21.49;57.64
3260;BME280;68938;48.150;14.004;2023-04-29T09:29:25;97791.75;;;21.15;57.41
3260;BME280;68938;48.150;14.004;2023-04-29T09:31:52;97787.47;;;21.25;57.64
3260;BME280;68938;48.150;14.004;2023-04-29T09:34:33;97786.19;;;21.20;58.63
3260;BME280;68938;48.150;14.004;2023-04-29T09:37:01;97803.03;;;21.27;58.46
3260;BME280;68938;48.150;14.004;2023-04-29T09:39:38;97803.50;;;21.21;57.91
3260;BME280;68938;48.150;14.004;2023-04-29T09:42:05;97788.47;;;21.13;57.22
3260;BME280;68938;48.150;14.004;2023-04-29T09:44:33;97789.53;;;21.11;57.00
3260;BME280;68938;48.150;14.004;2023-04-29T09:47:04;97802.88;;;21.40;57.23
3260;BME280;68938;48.150;14.004;2023-04-29T09:49:40;97804.88;;;21.59;56.65
3260;BME280;68938;48.150;14.004;2023-04-29T09:52:10;97795.47;;;21.67;55.31
3260;BME280;68938;48.150;14.004;2023-04-29T09:54:40;97802.06;;;21.83;54.71
3260;BME280;68938;48.150;14.004;2023-04-29T09:57:09;97801.19;;;21.93;54.07
3260;BME280;68938;48.150;14.004;2023-04-29T09:59:38;97798.47;;;21.95;53.74
3260;BME280;68938;48.150;14.004;2023-04-29T10:02:12;97817.22;;;22.21;53.05
3260;BME280;68938;48.150;14.004;2023-04-29T10:04:41;97805.41;;;22.06;52.91
3260;BME280;68938;48.150;14.004;2023-04-29T10:07:15;97803.69;;;21.95;53.84
3260;BME280;68938;48.150;14.004;2023-04-29T10:09:44;97806.94;;;22.19;54.55
3260;BME280;68938;48.150;14.004;2023-04-29T10:12:17;97800.56;;;22.33;53.72
3260;BME280;68938;48.150;14.004;2023-04-29T10:15:17;97813.41;;;22.25;52.59
3260;BME280;68938;48.150;14.004;2023-04-29T10:17:53;97801.44;;;22.11;52.20
3260;BME280;68938;48.150;14.004;2023-04-29T10:20:22;97797.59;;;21.73;52.65
3260;BME280;68938;48.150;14.004;2023-04-29T10:22:54;97805.84;;;21.58;54.91
3260;BME280;68938;48.150;14.004;2023-04-29T10:25:22;97797.34;;;21.76;54.33
3260;BME280;68938;48.150;14.004;2023-04-29T10:27:50;97806.31;;;21.84;54.04
3260;BME280;68938;48.150;14.004;2023-04-29T10:30:18;97801.06;;;21.63;53.00
3260;BME280;68938;48.150;14.004;2023-04-29T10:32:48;97801.78;;;21.53;53.83
3260;BME280;68938;48.150;14.004;2023-04-29T10:35:19;97799.50;;;21.71;53.66
3260;BME280;68938;48.150;14.004;2023-04-29T10:37:47;97791.44;;;21.74;54.45
3260;BME280;68938;48.150;14.004;2023-04-29T10:40:23;97805.59;;;22.14;54.24
3260;BME280;68938;48.150;14.004;2023-04-29T10:42:55;97804.41;;;22.18;50.75
3260;BME280;68938;48.150;14.004;2023-04-29T10:45:32;97792.19;;;22.18;50.31
3260;BME280;68938;48.150;14.004;2023-04-29T10:50:32;97779.69;;;21.14;52.13
3260;BME280;68938;48.150;14.004;2023-04-29T10:53:16;97781.19;;;21.39;52.40
3260;BME280;68938;48.150;14.004;2023-04-29T10:56:06;97773.34;;;21.50;53.89
3260;BME280;68938;48.150;14.004;2023-04-29T11:01:10;97760.41;;;21.81;52.55
3260;BME280;68938;48.150;14.004;2023-04-29T11:03:52;97758.38;;;21.85;52.54
3260;BME280;68938;48.150;14.004;2023-04-29T11:06:22;97746.47;;;22.13;51.22
3260;BME280;68938;48.150;14.004;2023-04-29T11:09:04;97748.44;;;22.41;51.21
3260;BME280;68938;48.150;14.004;2023-04-29T11:11:47;97745.41;;;22.36;49.96
3260;BME280;68938;48.150;14.004;2023-04-29T11:14:22;97737.00;;;22.33;50.38
3260;BME280;68938;48.150;14.004;2023-04-29T11:16:52;97738.25;;;22.38;47.01
3260;BME280;68938;48.150;14.004;2023-04-29T11:19:24;97730.56;;;22.37;46.87
3260;BME280;68938;48.150;14.004;2023-04-29T11:22:08;97729.50;;;22.49;46.61
3260;BME280;68938;48.150;14.004;2023-04-29T11:27:24;97744.72;;;22.65;46.95
3260;BME280;68938;48.150;14.004;2023-04-29T11:29:53;97735.28;;;22.53;47.67
3260;BME280;68938;48.150;14.004;2023-04-29T11:32:41;97737.47;;;22.17;48.08
3260;BME280;68938;48.150;14.004;2023-04-29T11:35:12;97742.34;;;22.31;48.49
3260;BME280;68938;48.150;14.004;2023-04-29T11:37:41;97736.56;;;22.58;47.50
3260;BME280;68938;48.150;14.004;2023-04-29T11:40:10;97732.03;;;22.91;47.90
3260;BME280;68938;48.150;14.004;2023-04-29T11:42:44;97737.56;;;22.98;46.33
3260;BME280;68938;48.150;14.004;2023-04-29T11:45:12;97731.38;;;22.99;46.35
3260;BME280;68938;48.150;14.004;2023-04-29T11:47:44;97736.16;;;22.93;45.35
3260;BME280;68938;48.150;14.004;2023-04-29T11:50:13;97728.88;;;22.66;45.09
3260;BME280;68938;48.150;14.004;2023-04-29T11:52:41;97736.81;;;22.55;45.49
3260;BME280;68938;48.150;14.004;2023-04-29T11:55:08;97731.50;;;22.66;45.18
3260;BME280;68938;48.150;14.004;2023-04-29T11:57:37;97722.88;;;22.45;45.13
3260;BME280;68938;48.150;14.004;2023-04-29T12:00:07;97744.13;;;21.57;45.70
3260;BME280;68938;48.150;14.004;2023-04-29T12:02:36;97735.13;;;22.03;46.43
3260;BME280;68938;48.150;14.004;2023-04-29T12:05:06;97747.38;;;22.02;45.25
3260;BME280;68938;48.150;14.004;2023-04-29T12:07:34;97735.66;;;21.96;45.90
3260;BME280;68938;48.150;14.004;2023-04-29T12:10:02;97723.75;;;22.24;46.30
3260;BME280;68938;48.150;14.004;2023-04-29T12:12:28;97726.19;;;21.84;46.22
3260;BME280;68938;48.150;14.004;2023-04-29T12:14:56;97716.97;;;21.80;46.02
3260;BME280;68938;48.150;14.004;2023-04-29T12:17:23;97706.53;;;22.01;46.13
3260;BME280;68938;48.150;14.004;2023-04-29T12:19:50;97711.56;;;22.35;46.00
3260;BME280;68938;48.150;14.004;2023-04-29T12:22:18;97714.50;;;22.20;48.06
3260;BME280;68938;48.150;14.004;2023-04-29T12:24:45;97701.09;;;22.14;46.63
3260;BME280;68938;48.150;14.004;2023-04-29T12:27:12;97703.34;;;22.39;44.47
3260;BME280;68938;48.150;14.004;2023-04-29T12:29:39;97695.72;;;22.57;44.55
3260;BME280;68938;48.150;14.004;2023-04-29T12:32:06;97704.41;;;22.98;44.24
3260;BME280;68938;48.150;14.004;2023-04-29T12:34:33;97690.66;;;22.75;44.14
3260;BME280;68938;48.150;14.004;2023-04-29T12:37:01;97705.09;;;22.60;45.52
3260;BME280;68938;48.150;14.004;2023-04-29T12:39:29;97699.53;;;22.93;42.98
3260;BME280;68938;48.150;14.004;2023-04-29T12:41:58;97690.41;;;23.28;42.34
3260;BME280;68938;48.150;14.004;2023-04-29T12:44:34;97691.22;;;23.38;42.24
3260;BME280;68938;48.150;14.004;2023-04-29T12:47:09;97693.44;;;23.43;42.07
3260;BME280;68938;48.150;14.004;2023-04-29T12:49:36;97698.94;;;23.50;41.71
3260;BME280;68938;48.150;14.004;2023-04-29T12:52:03;97695.19;;;23.13;42.77
3260;BME280;68938;48.150;14.004;2023-04-29T12:54:30;97684.59;;;23.34;43.26
3260;BME280;68938;48.150;14.004;2023-04-29T12:56:58;97690.13;;;23.51;41.81
3260;BME280;68938;48.150;14.004;2023-04-29T12:59:25;97694.25;;;23.34;41.73
3260;BME280;68938;48.150;14.004;2023-04-29T13:01:52;97682.69;;;23.56;42.51
3260;BME280;68938;48.150;14.004;2023-04-29T13:04:19;97680.47;;;23.90;40.51
3260;BME280;68938;48.150;14.004;2023-04-29T13:06:46;97682.56;;;24.24;38.86
3260;BME280;68938;48.150;14.004;2023-04-29T13:09:13;97681.06;;;24.21;40.84
3260;BME280;68938;48.150;14.004;2023-04-29T13:11:44;97684.78;;;24.28;40.25
3260;BME280;68938;48.150;14.004;2023-04-29T13:14:11;97680.09;;;24.22;39.66
3260;BME280;68938;48.150;14.004;2023-04-29T13:16:38;97675.28;;;24.27;39.34
3260;BME280;68938;48.150;14.004;2023-04-29T13:19:06;97673.38;;;24.57;39.05
3260;BME280;68938;48.150;14.004;2023-04-29T13:21:53;97681.69;;;24.98;38.68
3260;BME280;68938;48.150;14.004;2023-04-29T13:24:20;97672.69;;;24.82;38.93
3260;BME280;68938;48.150;14.004;2023-04-29T13:26:47;97675.13;;;24.66;39.88